createdAt,value
2019-02-23T00:00:53.572Z,90.90
2019-02-23T00:02:07.048Z,90.90
2019-02-23T00:03:20.358Z,91.20
2019-02-23T00:04:34.051Z,91.10
2019-02-23T00:05:49.130Z,91.10
2019-02-23T00:07:02.557Z,91.10
2019-02-23T00:08:17.409Z,91.00
2019-02-23T00:09:31.031Z,90.60
2019-02-23T00:10:44.265Z,90.90
2019-02-23T00:11:57.505Z,91.20
2019-02-23T00:13:10.761Z,91.20
2019-02-23T00:14:24.015Z,90.90
2019-02-23T00:15:37.273Z,91.10
2019-02-23T00:16:50.837Z,90.90
2019-02-23T00:18:04.081Z,90.90
2019-02-23T00:19:24.979Z,91.10
2019-02-23T00:20:33.573Z,91.00
2019-02-23T00:21:47.070Z,91.00
2019-02-23T00:23:00.506Z,90.90
2019-02-23T00:24:13.742Z,91.10
2019-02-23T00:25:26.966Z,90.90
2019-02-23T00:26:40.210Z,90.70
2019-02-23T00:27:53.436Z,90.80
2019-02-23T00:29:07.897Z,90.60
2019-02-23T00:30:21.137Z,90.60
2019-02-23T00:31:35.073Z,90.70
2019-02-23T00:32:48.325Z,90.60
2019-02-23T00:34:01.558Z,90.50
2019-02-23T00:35:14.777Z,90.40
2019-02-23T00:36:28.001Z,90.50
2019-02-23T00:37:41.234Z,90.30
2019-02-23T00:38:55.821Z,90.50
2019-02-23T00:40:09.049Z,90.70
2019-02-23T00:41:22.291Z,90.60
2019-02-23T00:42:36.598Z,90.70
2019-02-23T00:43:49.839Z,90.70
2019-02-23T00:45:03.077Z,90.70
2019-02-23T00:46:16.300Z,90.50
2019-02-23T00:47:29.530Z,90.50
2019-02-23T00:48:42.749Z,90.40
2019-02-23T00:49:55.980Z,90.40
2019-02-23T00:51:09.465Z,90.50
2019-02-23T00:52:22.697Z,90.40
2019-02-23T00:53:36.166Z,90.20
2019-02-23T00:54:50.465Z,90.00
2019-02-23T00:56:04.008Z,90.40
2019-02-23T00:57:17.254Z,90.00
2019-02-23T00:58:30.494Z,90.10
2019-02-23T00:59:43.733Z,90.00
2019-02-23T01:00:56.954Z,90.50
2019-02-23T01:02:12.050Z,90.30
2019-02-23T01:03:25.148Z,90.40
2019-02-23T01:04:38.368Z,90.30
2019-02-23T01:05:51.610Z,90.20
2019-02-23T01:07:04.825Z,90.40
2019-02-23T01:08:19.333Z,90.00
2019-02-23T01:09:32.993Z,90.20
2019-02-23T01:10:57.509Z,90.20
2019-02-23T01:12:02.821Z,90.00
2019-02-23T01:13:16.201Z,90.10
2019-02-23T01:14:29.427Z,89.80
2019-02-23T01:15:42.689Z,90.30
2019-02-23T01:16:55.905Z,90.30
2019-02-23T01:18:09.129Z,90.10
2019-02-23T01:19:22.363Z,90.40
2019-02-23T01:20:35.595Z,90.30
2019-02-23T01:21:49.253Z,90.50
2019-02-23T01:23:02.490Z,90.40
2019-02-23T01:24:16.178Z,90.20
2019-02-23T01:25:29.413Z,90.30
2019-02-23T01:26:42.653Z,90.10
2019-02-23T01:27:55.897Z,90.40
2019-02-23T01:29:09.703Z,90.20
2019-02-23T01:30:22.938Z,90.30
2019-02-23T01:31:36.165Z,90.60
2019-02-23T01:32:49.736Z,90.60
2019-02-23T01:34:02.996Z,90.30
2019-02-23T01:35:17.521Z,90.20
2019-02-23T01:36:32.812Z,90.20
2019-02-23T01:37:46.164Z,90.60
2019-02-23T01:38:59.415Z,90.60
2019-02-23T01:40:12.685Z,90.40
2019-02-23T01:41:25.901Z,90.40
2019-02-23T01:42:39.370Z,90.80
2019-02-23T01:43:52.593Z,90.70
2019-02-23T01:45:07.358Z,90.40
2019-02-23T01:46:20.744Z,90.20
2019-02-23T01:47:33.978Z,90.30
2019-02-23T01:48:47.268Z,90.60
2019-02-23T01:50:00.499Z,90.30
2019-02-23T01:51:13.725Z,90.30
2019-02-23T01:52:26.970Z,89.80
2019-02-23T01:53:40.210Z,90.10
2019-02-23T01:54:54.817Z,90.00
2019-02-23T01:56:08.041Z,90.40
2019-02-23T01:57:23.912Z,90.50
2019-02-23T01:58:37.149Z,90.30
2019-02-23T01:59:50.612Z,89.30
2019-02-23T02:01:03.892Z,90.00
2019-02-23T02:02:17.124Z,89.90
2019-02-23T02:03:30.353Z,90.00
2019-02-23T02:04:43.610Z,89.90
2019-02-23T02:05:56.905Z,90.00
2019-02-23T02:07:10.509Z,88.70
2019-02-23T02:08:23.750Z,89.10
2019-02-23T02:09:36.979Z,89.50
2019-02-23T02:10:50.229Z,90.00
2019-02-23T02:12:04.293Z,89.70
2019-02-23T02:13:17.518Z,89.60
2019-02-23T02:14:30.989Z,89.60
2019-02-23T02:15:44.224Z,90.20
2019-02-23T02:16:57.473Z,89.90
2019-02-23T02:18:10.711Z,89.60
2019-02-23T02:19:23.942Z,90.00
2019-02-23T02:20:37.165Z,89.90
2019-02-23T02:21:50.393Z,90.30
2019-02-23T02:23:03.645Z,90.10
2019-02-23T02:24:16.873Z,90.00
2019-02-23T02:25:30.111Z,90.20
2019-02-23T02:26:43.328Z,90.30
2019-02-23T02:27:56.561Z,89.90
2019-02-23T02:29:09.870Z,90.20
2019-02-23T02:30:23.125Z,90.50
2019-02-23T02:31:36.347Z,90.20
2019-02-23T02:32:49.577Z,90.20
2019-02-23T02:34:07.209Z,90.60
2019-02-23T02:35:20.441Z,90.20
2019-02-23T02:36:35.289Z,90.20
2019-02-23T02:37:48.514Z,90.50
2019-02-23T02:39:01.751Z,90.60
2019-02-23T02:40:14.982Z,90.60
2019-02-23T02:41:28.206Z,90.70
2019-02-23T02:42:43.408Z,90.40
2019-02-23T02:43:56.628Z,90.00
2019-02-23T02:45:10.848Z,89.90
2019-02-23T02:46:24.058Z,90.30
2019-02-23T02:47:37.281Z,90.00
2019-02-23T02:48:50.511Z,89.50
2019-02-23T02:50:04.890Z,89.70
2019-02-23T02:51:18.121Z,90.20
2019-02-23T02:52:32.076Z,90.30
2019-02-23T02:53:45.304Z,90.30
2019-02-23T02:54:58.540Z,90.40
2019-02-23T02:56:11.793Z,90.60
2019-02-23T02:57:25.017Z,90.20
2019-02-23T02:58:38.489Z,90.60
2019-02-23T02:59:51.725Z,90.50
2019-02-23T03:01:05.201Z,90.50
2019-02-23T03:02:18.424Z,90.50
2019-02-23T03:03:31.647Z,90.40
2019-02-23T03:04:44.873Z,90.30
2019-02-23T03:05:58.113Z,90.40
2019-02-23T03:07:12.456Z,90.60
2019-02-23T03:08:25.685Z,90.70
2019-02-23T03:09:38.918Z,90.60
2019-02-23T03:10:52.145Z,90.90
2019-02-23T03:12:05.369Z,90.90
2019-02-23T03:13:18.605Z,90.90
2019-02-23T03:14:31.836Z,90.80
2019-02-23T03:15:45.077Z,90.80
2019-02-23T03:16:59.793Z,90.70
2019-02-23T03:18:13.016Z,90.70
2019-02-23T03:19:27.740Z,90.70
2019-02-23T03:20:40.976Z,90.30
2019-02-23T03:21:54.918Z,90.60
2019-02-23T03:23:08.842Z,90.50
2019-02-23T03:24:22.073Z,90.60
2019-02-23T03:25:35.534Z,90.40
2019-02-23T03:26:48.760Z,90.90
2019-02-23T03:28:01.998Z,90.70
2019-02-23T03:29:15.210Z,90.50
2019-02-23T03:30:28.434Z,90.70
2019-02-23T03:31:41.675Z,91.00
2019-02-23T03:32:54.889Z,90.80
2019-02-23T03:34:08.114Z,90.50
2019-02-23T03:35:21.341Z,90.40
2019-02-23T03:36:34.818Z,90.50
2019-02-23T03:37:48.046Z,90.40
2019-02-23T03:39:01.264Z,90.50
2019-02-23T03:40:14.489Z,90.50
2019-02-23T03:41:27.720Z,90.40
2019-02-23T03:42:41.206Z,90.60
2019-02-23T03:43:54.679Z,90.60
2019-02-23T03:45:07.917Z,90.60
2019-02-23T03:46:21.182Z,90.60
2019-02-23T03:47:34.405Z,90.10
2019-02-23T03:48:47.635Z,90.60
2019-02-23T03:50:00.879Z,90.50
2019-02-23T03:51:14.121Z,90.40
2019-02-23T03:52:27.817Z,90.70
2019-02-23T03:53:41.047Z,90.80
2019-02-23T03:54:54.277Z,91.00
2019-02-23T03:56:07.508Z,90.70
2019-02-23T03:57:20.745Z,90.60
2019-02-23T03:58:33.970Z,90.70
2019-02-23T03:59:47.275Z,90.70
2019-02-23T04:01:01.423Z,90.60
2019-02-23T04:02:14.718Z,90.50
2019-02-23T04:03:28.016Z,90.00
2019-02-23T04:04:41.246Z,90.00
2019-02-23T04:05:54.468Z,90.00
2019-02-23T04:07:07.704Z,90.10
2019-02-23T04:08:20.954Z,89.20
2019-02-23T04:09:34.268Z,89.60
2019-02-23T04:10:47.505Z,89.50
2019-02-23T04:12:00.740Z,89.20
2019-02-23T04:13:13.986Z,88.60
2019-02-23T04:14:27.217Z,88.00
2019-02-23T04:15:40.434Z,88.10
2019-02-23T04:16:53.721Z,88.40
2019-02-23T04:18:06.953Z,88.80
2019-02-23T04:19:20.185Z,89.00
2019-02-23T04:20:33.418Z,87.90
2019-02-23T04:21:46.665Z,87.20
2019-02-23T04:23:03.171Z,88.30
2019-02-23T04:24:16.400Z,88.10
2019-02-23T04:25:29.638Z,87.70
2019-02-23T04:26:42.879Z,88.20
2019-02-23T04:27:56.098Z,88.10
2019-02-23T04:29:09.322Z,88.00
2019-02-23T04:30:22.567Z,87.80
2019-02-23T04:31:35.808Z,87.30
2019-02-23T04:32:49.035Z,87.50
2019-02-23T04:34:02.262Z,87.60
2019-02-23T04:35:15.493Z,87.90
2019-02-23T04:36:28.737Z,86.10
2019-02-23T04:37:42.698Z,87.40
2019-02-23T04:38:55.938Z,87.50
2019-02-23T04:40:09.157Z,87.00
2019-02-23T04:41:22.385Z,86.90
2019-02-23T04:42:35.627Z,87.40
2019-02-23T04:43:48.855Z,87.40
2019-02-23T04:45:02.081Z,88.00
2019-02-23T04:46:15.317Z,87.60
2019-02-23T04:47:28.797Z,88.20
2019-02-23T04:48:42.029Z,87.30
2019-02-23T04:49:55.637Z,87.40
2019-02-23T04:51:14.211Z,87.50
2019-02-23T04:52:23.828Z,86.90
2019-02-23T04:53:37.289Z,87.00
2019-02-23T04:54:50.532Z,87.20
2019-02-23T04:56:05.193Z,87.10
2019-02-23T04:57:18.429Z,86.00
2019-02-23T04:58:32.370Z,85.80
2019-02-23T04:59:45.652Z,85.20
2019-02-23T05:00:58.885Z,85.00
2019-02-23T05:02:12.123Z,84.80
2019-02-23T05:03:25.361Z,85.60
2019-02-23T05:04:38.666Z,84.30
2019-02-23T05:05:53.175Z,85.10
2019-02-23T05:07:07.710Z,83.90
2019-02-23T05:08:20.925Z,84.40
2019-02-23T05:09:34.368Z,85.80
2019-02-23T05:10:47.613Z,85.80
2019-02-23T05:12:00.849Z,85.80
2019-02-23T05:13:14.070Z,84.50
2019-02-23T05:14:27.301Z,83.80
2019-02-23T05:15:40.529Z,84.50
2019-02-23T05:16:53.745Z,83.90
2019-02-23T05:18:07.066Z,84.20
2019-02-23T05:19:20.277Z,83.00
2019-02-23T05:20:33.520Z,81.80
2019-02-23T05:21:46.733Z,82.40
2019-02-23T05:23:00.001Z,81.80
2019-02-23T05:24:13.253Z,82.00
2019-02-23T05:25:26.550Z,82.60
2019-02-23T05:26:39.791Z,83.60
2019-02-23T05:27:53.030Z,83.00
2019-02-23T05:29:06.488Z,83.10
2019-02-23T05:30:19.741Z,83.50
2019-02-23T05:31:32.972Z,82.50
2019-02-23T05:32:46.217Z,82.60
2019-02-23T05:33:59.725Z,82.80
2019-02-23T05:35:13.934Z,82.40
2019-02-23T05:36:27.163Z,81.90
2019-02-23T05:37:40.408Z,82.70
2019-02-23T05:38:53.620Z,82.00
2019-02-23T05:40:11.522Z,83.10
2019-02-23T05:41:24.754Z,83.60
2019-02-23T05:42:37.997Z,83.30
2019-02-23T05:43:51.239Z,83.00
2019-02-23T05:45:08.137Z,82.90
2019-02-23T05:46:21.368Z,82.10
2019-02-23T05:47:34.606Z,81.90
2019-02-23T05:48:47.837Z,82.60
2019-02-23T05:50:01.070Z,82.70
2019-02-23T05:51:14.302Z,82.80
2019-02-23T05:52:27.600Z,82.30
2019-02-23T05:53:41.504Z,82.30
2019-02-23T05:54:54.729Z,81.90
2019-02-23T05:56:07.967Z,82.50
2019-02-23T05:57:21.202Z,81.60
2019-02-23T05:58:34.441Z,81.40
2019-02-23T05:59:48.395Z,82.30
2019-02-23T06:01:01.601Z,81.20
2019-02-23T06:02:14.852Z,81.60
2019-02-23T06:03:28.133Z,80.50
2019-02-23T06:04:42.089Z,79.40
2019-02-23T06:05:55.358Z,80.10
2019-02-23T06:07:08.597Z,78.70
2019-02-23T06:08:21.807Z,80.10
2019-02-23T06:09:36.258Z,79.40
2019-02-23T06:10:49.490Z,79.50
2019-02-23T06:12:02.718Z,78.60
2019-02-23T06:13:15.940Z,77.30
2019-02-23T06:14:29.181Z,78.40
2019-02-23T06:15:42.406Z,78.40
2019-02-23T06:16:55.633Z,79.30
2019-02-23T06:18:08.854Z,78.10
2019-02-23T06:19:22.087Z,77.20
2019-02-23T06:20:35.346Z,76.60
2019-02-23T06:21:53.574Z,75.70
2019-02-23T06:23:03.530Z,76.00
2019-02-23T06:24:16.761Z,75.70
2019-02-23T06:25:29.977Z,74.90
2019-02-23T06:26:43.210Z,76.00
2019-02-23T06:27:56.448Z,76.40
2019-02-23T06:29:09.692Z,76.00
2019-02-23T06:30:22.987Z,75.10
2019-02-23T06:31:36.204Z,75.40
2019-02-23T06:32:49.439Z,75.20
2019-02-23T06:34:12.534Z,75.60
2019-02-23T06:35:17.620Z,74.90
2019-02-23T06:36:30.840Z,74.00
2019-02-23T06:37:44.069Z,75.80
2019-02-23T06:38:57.294Z,77.20
2019-02-23T06:40:11.275Z,73.80
2019-02-23T06:41:24.512Z,74.00
2019-02-23T06:42:37.731Z,72.20
2019-02-23T06:43:50.960Z,72.60
2019-02-23T06:45:06.730Z,72.90
2019-02-23T06:46:19.972Z,72.50
2019-02-23T06:47:33.207Z,70.90
2019-02-23T06:48:46.433Z,70.80
2019-02-23T06:49:59.656Z,72.30
2019-02-23T06:51:12.901Z,71.80
2019-02-23T06:52:26.138Z,70.90
2019-02-23T06:53:39.341Z,72.20
2019-02-23T06:54:53.285Z,72.20
2019-02-23T06:56:06.513Z,71.20
2019-02-23T06:57:21.014Z,71.00
2019-02-23T06:58:34.241Z,71.50
2019-02-23T06:59:47.482Z,71.10
2019-02-23T07:01:00.949Z,71.40
2019-02-23T07:02:14.189Z,71.40
2019-02-23T07:03:27.422Z,71.20
2019-02-23T07:04:40.657Z,71.20
2019-02-23T07:05:53.885Z,70.70
2019-02-23T07:07:07.111Z,70.70
2019-02-23T07:08:23.144Z,71.80
2019-02-23T07:09:36.542Z,71.60
2019-02-23T07:10:55.781Z,71.60
2019-02-23T07:12:04.949Z,71.90
2019-02-23T07:13:18.195Z,72.20
2019-02-23T07:14:31.406Z,72.10
2019-02-23T07:15:44.641Z,71.60
2019-02-23T07:16:57.873Z,71.10
2019-02-23T07:18:11.122Z,71.50
2019-02-23T07:19:24.341Z,71.70
2019-02-23T07:20:44.121Z,70.40
2019-02-23T07:21:52.525Z,70.50
2019-02-23T07:23:05.744Z,69.80
2019-02-23T07:24:18.980Z,69.70
2019-02-23T07:25:32.196Z,70.70
2019-02-23T07:26:45.405Z,69.60
2019-02-23T07:27:58.625Z,69.20
2019-02-23T07:29:11.859Z,68.90
2019-02-23T07:30:25.078Z,68.60
2019-02-23T07:31:38.296Z,69.10
2019-02-23T07:32:51.520Z,69.30
2019-02-23T07:34:04.748Z,68.40
2019-02-23T07:35:18.725Z,67.30
2019-02-23T07:36:31.947Z,67.60
2019-02-23T07:37:45.170Z,67.90
2019-02-23T07:38:58.395Z,67.70
2019-02-23T07:40:13.460Z,67.60
2019-02-23T07:41:26.683Z,66.20
2019-02-23T07:42:39.953Z,66.60
2019-02-23T07:43:53.180Z,67.10
2019-02-23T07:45:09.061Z,67.10
2019-02-23T07:46:22.303Z,68.00
2019-02-23T07:47:35.517Z,66.70
2019-02-23T07:48:48.740Z,66.40
2019-02-23T07:50:01.974Z,66.40
2019-02-23T07:51:15.239Z,66.50
2019-02-23T07:52:28.469Z,66.10
2019-02-23T07:53:41.706Z,65.60
2019-02-23T07:54:54.925Z,65.30
2019-02-23T07:56:08.156Z,65.60
2019-02-23T07:57:21.371Z,65.40
2019-02-23T07:58:34.588Z,65.20
2019-02-23T07:59:47.811Z,65.40
2019-02-23T08:01:01.049Z,65.10
2019-02-23T08:02:14.285Z,64.20
2019-02-23T08:03:27.538Z,65.10
2019-02-23T08:04:40.759Z,64.30
2019-02-23T08:05:53.985Z,63.90
2019-02-23T08:07:07.206Z,63.40
2019-02-23T08:08:20.430Z,64.00
2019-02-23T08:09:33.897Z,63.30
2019-02-23T08:10:47.134Z,62.60
2019-02-23T08:12:00.357Z,62.20
2019-02-23T08:13:15.082Z,63.00
2019-02-23T08:14:28.296Z,62.70
2019-02-23T08:15:41.531Z,63.00
2019-02-23T08:16:55.681Z,63.30
2019-02-23T08:18:08.918Z,62.80
2019-02-23T08:19:22.167Z,62.10
2019-02-23T08:20:36.101Z,61.50
2019-02-23T08:21:49.332Z,61.90
2019-02-23T08:23:02.552Z,61.60
2019-02-23T08:24:15.780Z,61.60
2019-02-23T08:25:29.706Z,61.30
2019-02-23T08:26:43.168Z,60.60
2019-02-23T08:27:56.397Z,61.40
2019-02-23T08:29:09.621Z,59.90
2019-02-23T08:30:22.841Z,59.40
2019-02-23T08:31:36.069Z,59.50
2019-02-23T08:32:49.560Z,59.00
2019-02-23T08:34:02.829Z,58.70
2019-02-23T08:35:16.050Z,58.60
2019-02-23T08:36:29.281Z,59.40
2019-02-23T08:37:42.515Z,59.00
2019-02-23T08:38:55.794Z,58.10
2019-02-23T08:40:11.765Z,57.00
2019-02-23T08:41:24.992Z,58.10
2019-02-23T08:42:38.214Z,58.20
2019-02-23T08:43:51.433Z,58.10
2019-02-23T08:45:06.408Z,56.60
2019-02-23T08:46:19.645Z,56.60
2019-02-23T08:47:32.865Z,56.10
2019-02-23T08:48:47.477Z,56.40
2019-02-23T08:50:00.698Z,55.40
2019-02-23T08:51:13.925Z,55.90
2019-02-23T08:52:27.142Z,56.00
2019-02-23T08:53:40.357Z,55.30
2019-02-23T08:54:53.658Z,53.70
2019-02-23T08:56:06.871Z,53.70
2019-02-23T08:57:20.130Z,53.30
2019-02-23T08:58:33.342Z,53.00
2019-02-23T08:59:46.561Z,52.20
2019-02-23T09:00:59.776Z,52.70
2019-02-23T09:02:13.008Z,52.20
2019-02-23T09:03:26.222Z,51.20
2019-02-23T09:04:39.694Z,51.80
2019-02-23T09:05:52.921Z,52.00
2019-02-23T09:07:06.148Z,50.80
2019-02-23T09:08:20.414Z,50.80
2019-02-23T09:09:33.704Z,49.40
2019-02-23T09:10:46.921Z,49.30
2019-02-23T09:12:00.153Z,48.30
2019-02-23T09:13:13.596Z,46.40
2019-02-23T09:14:27.059Z,45.80
2019-02-23T09:15:40.505Z,46.20
2019-02-23T09:16:54.469Z,46.80
2019-02-23T09:18:07.688Z,47.00
2019-02-23T09:19:20.909Z,47.10
2019-02-23T09:20:34.206Z,46.00
2019-02-23T09:21:47.440Z,45.60
2019-02-23T09:23:00.693Z,44.90
2019-02-23T09:24:13.953Z,44.70
2019-02-23T09:25:27.451Z,43.50
2019-02-23T09:26:40.685Z,43.50
2019-02-23T09:27:53.908Z,41.80
2019-02-23T09:29:07.126Z,41.90
2019-02-23T09:30:21.718Z,41.90
2019-02-23T09:31:35.181Z,43.70
2019-02-23T09:32:48.401Z,42.40
2019-02-23T09:34:01.683Z,43.40
2019-02-23T09:35:16.325Z,41.20
2019-02-23T09:36:29.551Z,42.20
2019-02-23T09:37:42.793Z,41.70
2019-02-23T09:38:56.010Z,41.80
2019-02-23T09:40:14.663Z,42.30
2019-02-23T09:41:27.877Z,41.40
2019-02-23T09:42:42.025Z,41.10
2019-02-23T09:43:55.254Z,40.70
2019-02-23T09:45:11.168Z,39.80
2019-02-23T09:46:24.629Z,39.60
2019-02-23T09:47:39.691Z,40.30
2019-02-23T09:48:56.240Z,39.60
2019-02-23T09:50:10.062Z,39.80
2019-02-23T09:51:24.013Z,39.80
2019-02-23T09:52:37.263Z,39.30
2019-02-23T09:53:50.483Z,39.30
2019-02-23T09:55:03.704Z,39.20
2019-02-23T09:56:16.925Z,39.70
2019-02-23T09:57:30.418Z,40.70
2019-02-23T09:58:43.649Z,41.40
2019-02-23T09:59:57.107Z,39.80
2019-02-23T10:01:10.581Z,40.30
2019-02-23T10:02:23.833Z,41.10
2019-02-23T10:03:37.069Z,40.10
2019-02-23T10:04:50.291Z,41.00
2019-02-23T10:06:03.512Z,41.80
2019-02-23T10:07:16.747Z,41.10
2019-02-23T10:08:29.974Z,40.40
2019-02-23T10:09:43.451Z,40.80
2019-02-23T10:10:57.676Z,42.40
2019-02-23T10:12:10.967Z,42.20
2019-02-23T10:13:24.194Z,42.70
2019-02-23T10:14:37.646Z,42.10
2019-02-23T10:15:50.883Z,41.10
2019-02-23T10:17:04.122Z,42.00
2019-02-23T10:18:18.454Z,42.50
2019-02-23T10:19:31.913Z,42.70
2019-02-23T10:20:45.865Z,42.60
2019-02-23T10:22:02.223Z,42.70
2019-02-23T10:23:22.049Z,43.60
2019-02-23T10:24:31.674Z,41.90
2019-02-23T10:25:44.892Z,41.10
2019-02-23T10:26:58.454Z,41.70
2019-02-23T10:28:11.679Z,40.80
2019-02-23T10:29:25.184Z,40.20
2019-02-23T10:30:38.401Z,40.40
2019-02-23T10:31:51.629Z,41.30
2019-02-23T10:33:04.872Z,40.70
2019-02-23T10:34:22.664Z,41.00
2019-02-23T10:35:35.881Z,41.10
2019-02-23T10:36:49.122Z,40.10
2019-02-23T10:38:03.089Z,41.50
2019-02-23T10:39:16.299Z,40.50
2019-02-23T10:40:39.635Z,39.20
2019-02-23T10:41:44.964Z,39.00
2019-02-23T10:43:01.345Z,39.70
2019-02-23T10:44:14.561Z,38.00
2019-02-23T10:45:27.793Z,38.70
2019-02-23T10:46:42.743Z,38.30
2019-02-23T10:47:55.953Z,39.60
2019-02-23T10:49:09.187Z,37.90
2019-02-23T10:50:22.408Z,36.90
2019-02-23T10:51:35.616Z,37.70
2019-02-23T10:52:49.574Z,38.70
2019-02-23T10:54:04.429Z,36.80
2019-02-23T10:55:17.902Z,37.60
2019-02-23T10:56:31.136Z,38.30
2019-02-23T10:57:44.353Z,37.20
2019-02-23T10:58:57.605Z,37.60
2019-02-23T11:00:16.110Z,36.80
2019-02-23T11:01:31.153Z,37.00
2019-02-23T11:02:44.626Z,35.70
2019-02-23T11:03:57.845Z,36.80
2019-02-23T11:05:11.371Z,36.50
2019-02-23T11:06:24.592Z,37.00
2019-02-23T11:07:38.049Z,35.10
2019-02-23T11:08:51.269Z,35.00
2019-02-23T11:10:31.133Z,35.00
2019-02-23T11:11:44.350Z,35.90
2019-02-23T11:12:57.594Z,36.20
2019-02-23T11:14:10.817Z,36.00
2019-02-23T11:15:24.712Z,35.10
2019-02-23T11:16:37.942Z,34.70
2019-02-23T11:17:51.160Z,35.00
2019-02-23T11:19:04.381Z,35.30
2019-02-23T11:20:17.608Z,35.40
2019-02-23T11:21:30.833Z,35.20
2019-02-23T11:22:44.053Z,36.40
2019-02-23T11:23:57.272Z,35.90
2019-02-23T11:25:11.448Z,35.80
2019-02-23T11:26:24.666Z,34.40
2019-02-23T11:27:37.897Z,35.20
2019-02-23T11:28:51.147Z,35.70
2019-02-23T11:30:07.105Z,35.70
2019-02-23T11:31:20.329Z,35.00
2019-02-23T11:32:33.544Z,33.70
2019-02-23T11:33:46.778Z,35.00
2019-02-23T11:35:00.025Z,34.30
2019-02-23T11:36:13.270Z,35.10
2019-02-23T11:37:27.240Z,35.00
2019-02-23T11:38:40.469Z,35.40
2019-02-23T11:39:53.683Z,35.60
2019-02-23T11:41:06.898Z,34.40
2019-02-23T11:42:20.137Z,34.10
2019-02-23T11:43:33.364Z,33.60
2019-02-23T11:44:46.605Z,33.30
2019-02-23T11:45:59.834Z,33.60
2019-02-23T11:47:13.109Z,34.70
2019-02-23T11:48:26.421Z,34.30
2019-02-23T11:49:39.682Z,34.10
2019-02-23T11:50:52.909Z,34.00
2019-02-23T11:52:06.142Z,35.10
2019-02-23T11:53:19.388Z,34.30
2019-02-23T11:54:32.686Z,34.10
2019-02-23T11:55:45.902Z,33.70
2019-02-23T11:56:59.124Z,33.80
2019-02-23T11:58:12.351Z,33.20
2019-02-23T11:59:25.581Z,33.20
2019-02-23T12:00:38.797Z,32.00
2019-02-23T12:01:52.031Z,30.00
2019-02-23T12:03:05.254Z,29.30
2019-02-23T12:04:18.497Z,28.40
2019-02-23T12:05:31.738Z,27.60
2019-02-23T12:06:44.949Z,26.40
2019-02-23T12:07:58.169Z,24.60
2019-02-23T12:09:11.389Z,23.70
2019-02-23T12:10:24.624Z,24.10
2019-02-23T12:11:38.126Z,22.60
2019-02-23T12:12:51.352Z,22.50
2019-02-23T12:14:04.825Z,21.00
2019-02-23T12:15:18.152Z,20.90
2019-02-23T12:16:31.387Z,20.90
2019-02-23T12:17:44.621Z,20.40
2019-02-23T12:18:57.842Z,21.60
2019-02-23T12:20:11.349Z,20.40
2019-02-23T12:21:24.576Z,20.80
2019-02-23T12:22:37.794Z,21.70
2019-02-23T12:23:51.029Z,22.10
2019-02-23T12:25:05.004Z,23.00
2019-02-23T12:26:18.236Z,23.80
2019-02-23T12:27:31.468Z,22.40
2019-02-23T12:28:44.688Z,22.30
2019-02-23T12:29:57.931Z,23.10
2019-02-23T12:31:11.180Z,22.90
2019-02-23T12:32:24.389Z,22.10
2019-02-23T12:33:37.869Z,22.00
2019-02-23T12:34:51.111Z,21.40
2019-02-23T12:36:04.345Z,21.50
2019-02-23T12:37:17.565Z,22.70
2019-02-23T12:38:31.561Z,23.40
2019-02-23T12:39:44.809Z,22.70
2019-02-23T12:40:58.032Z,21.90
2019-02-23T12:42:11.266Z,21.20
2019-02-23T12:43:24.497Z,21.80
2019-02-23T12:44:37.728Z,20.70
2019-02-23T12:45:50.961Z,21.10
2019-02-23T12:47:04.186Z,21.20
2019-02-23T12:48:18.311Z,22.50
2019-02-23T12:49:31.527Z,22.60
2019-02-23T12:50:44.757Z,21.60
2019-02-23T12:51:57.990Z,21.40
2019-02-23T12:53:11.222Z,20.30
2019-02-23T12:54:24.436Z,20.50
2019-02-23T12:55:39.669Z,21.60
2019-02-23T12:56:56.734Z,21.80
2019-02-23T12:58:11.274Z,21.90
2019-02-23T12:59:30.016Z,21.90
2019-02-23T13:00:46.750Z,22.00
2019-02-23T13:02:09.366Z,21.00
2019-02-23T13:03:37.953Z,20.40
2019-02-23T13:04:51.746Z,20.90
2019-02-23T13:06:08.150Z,20.60
2019-02-23T13:07:32.937Z,22.30
2019-02-23T13:09:10.870Z,22.40
2019-02-23T13:10:31.130Z,23.00
2019-02-23T13:11:49.410Z,21.40
2019-02-23T13:13:32.789Z,21.00
2019-02-23T13:14:52.274Z,20.90
2019-02-23T13:16:09.556Z,20.30
2019-02-23T13:17:42.375Z,20.70
2019-02-23T13:19:12.160Z,20.10
2019-02-23T13:20:39.141Z,19.80
2019-02-23T13:22:02.993Z,18.40
2019-02-23T13:23:58.295Z,19.40
2019-02-23T13:25:23.136Z,19.90
2019-02-23T13:26:54.953Z,20.60
2019-02-23T13:28:19.023Z,21.20
2019-02-23T13:29:43.941Z,21.50
2019-02-23T13:31:19.660Z,21.00
2019-02-23T13:32:48.182Z,20.40
2019-02-23T13:34:27.085Z,19.50
2019-02-23T13:35:52.382Z,18.00
2019-02-23T13:37:11.660Z,19.00
2019-02-23T13:38:49.464Z,18.20
2019-02-23T13:40:22.301Z,18.00
2019-02-23T13:42:05.557Z,19.30
2019-02-23T13:43:30.058Z,20.20
2019-02-23T13:44:56.961Z,20.30
2019-02-23T13:46:15.505Z,19.40
2019-02-23T13:47:52.209Z,20.10
2019-02-23T13:49:11.629Z,18.70
2019-02-23T13:50:39.391Z,18.10
2019-02-23T13:51:55.889Z,17.60
2019-02-23T13:53:21.009Z,18.20
2019-02-23T13:54:49.131Z,18.60
2019-02-23T13:56:05.641Z,19.50
2019-02-23T13:57:28.123Z,18.80
2019-02-23T13:58:49.182Z,18.60
2019-02-23T14:00:10.882Z,19.10
2019-02-23T14:01:36.181Z,19.50
2019-02-23T14:03:08.700Z,19.10
2019-02-23T14:04:33.541Z,18.50
2019-02-23T14:05:52.913Z,19.80
2019-02-23T14:07:12.258Z,19.30
2019-02-23T14:08:38.811Z,19.40
2019-02-23T14:10:06.890Z,19.40
2019-02-23T14:11:45.077Z,18.60
2019-02-23T14:13:04.135Z,19.50
2019-02-23T14:14:37.797Z,19.70
2019-02-23T14:15:59.957Z,19.70
2019-02-23T14:17:32.675Z,20.40
2019-02-23T14:19:03.970Z,20.30
2019-02-23T14:20:40.965Z,19.70
2019-02-23T14:22:00.400Z,20.00
2019-02-23T14:23:37.647Z,19.20
2019-02-23T14:25:14.797Z,18.90
2019-02-23T14:26:56.700Z,17.70
2019-02-23T14:28:37.293Z,16.30
2019-02-23T14:29:56.580Z,17.50
2019-02-23T14:31:27.913Z,18.90
2019-02-23T14:33:09.386Z,20.60
2019-02-23T14:34:34.725Z,19.20
2019-02-23T14:36:08.884Z,20.20
2019-02-23T14:37:41.642Z,20.00
2019-02-23T14:39:03.893Z,21.00
2019-02-23T14:40:32.085Z,21.00
2019-02-23T14:41:51.094Z,21.20
2019-02-23T14:43:13.170Z,20.50
2019-02-23T14:44:57.934Z,21.10
2019-02-23T14:46:20.867Z,20.80
2019-02-23T14:47:52.350Z,19.90
2019-02-23T14:49:08.901Z,21.30
2019-02-23T14:50:40.226Z,19.50
2019-02-23T14:52:21.288Z,20.70
2019-02-23T14:53:37.837Z,20.50
2019-02-23T14:55:00.874Z,21.00
2019-02-23T14:56:36.486Z,21.20
2019-02-23T14:58:24.910Z,20.80
2019-02-23T14:59:59.214Z,19.40
2019-02-23T15:01:21.610Z,20.00
2019-02-23T15:03:03.702Z,20.30
2019-02-23T15:04:25.885Z,20.60
2019-02-23T15:05:45.374Z,20.60
2019-02-23T15:07:21.434Z,20.60
2019-02-23T15:08:40.897Z,19.50
2019-02-23T15:10:12.134Z,20.50
2019-02-23T15:11:44.659Z,21.10
2019-02-23T15:13:26.586Z,21.40
2019-02-23T15:15:02.221Z,20.50
2019-02-23T15:16:37.103Z,19.30
2019-02-23T15:17:55.981Z,19.40
2019-02-23T15:19:19.518Z,18.70
2019-02-23T15:20:56.588Z,19.70
2019-02-23T15:22:24.894Z,19.80
2019-02-23T15:23:53.925Z,20.70
2019-02-23T15:25:32.538Z,20.90
2019-02-23T15:27:14.213Z,21.10
2019-02-23T15:28:38.239Z,20.20
2019-02-23T15:30:09.760Z,20.50
2019-02-23T15:31:42.654Z,20.70
2019-02-23T15:33:02.049Z,20.20
2019-02-23T15:34:18.543Z,19.90
2019-02-23T15:35:54.613Z,20.60
2019-02-23T15:37:22.681Z,20.70
2019-02-23T15:38:52.119Z,20.60
2019-02-23T15:40:14.332Z,21.10
2019-02-23T15:41:39.527Z,21.00
2019-02-23T15:43:01.857Z,21.30
2019-02-23T15:44:21.457Z,22.40
2019-02-23T15:45:48.496Z,21.90
2019-02-23T15:47:19.717Z,21.80
2019-02-23T15:48:38.990Z,21.80
2019-02-23T15:49:52.209Z,21.80
2019-02-23T15:51:05.471Z,22.30
2019-02-23T15:52:18.764Z,23.20
2019-02-23T15:53:31.984Z,22.60
2019-02-23T15:54:45.223Z,22.70
2019-02-23T15:55:58.929Z,24.00
2019-02-23T15:57:12.173Z,24.40
2019-02-23T15:58:25.425Z,25.00
2019-02-23T15:59:44.382Z,25.30
2019-02-23T16:00:56.476Z,25.70
2019-02-23T16:02:09.717Z,26.00
2019-02-23T16:03:23.420Z,26.20
2019-02-23T16:04:36.641Z,26.30
2019-02-23T16:05:49.860Z,26.50
2019-02-23T16:07:03.127Z,26.90
2019-02-23T16:08:16.369Z,26.60
2019-02-23T16:09:29.614Z,26.80
2019-02-23T16:10:42.848Z,27.00
2019-02-23T16:11:56.087Z,27.10
2019-02-23T16:13:09.301Z,27.70
2019-02-23T16:14:22.536Z,27.70
2019-02-23T16:15:35.757Z,27.80